Time;durP1;ratioP1;P1;durP2;ratioP2;P2;SDS_P1;SDS_P2;PMS_P1;PMS_P2;Temp;Humidity;BMP_temperature;BMP_pressure;BME280_temperature;BME280_humidity;BME280_pressure;Samples;Min_cycle;Max_cycle;Signal;HPM_P1;HPM_P2
2023/05/08 00:01:42;;;;;;;14.13;10.52;;;;;;;;;;5012764;28;20049;-70
2023/05/08 00:04:07;;;;;;;17.50;11.10;;;;;;;;;;5013016;28;20514;-72
2023/05/08 00:06:32;;;;;;;16.45;11.00;;;;;;;;;;5036376;28;20979;-70
2023/05/08 00:08:58;;;;;;;14.70;10.18;;;;;;;;;;5021478;28;20049;-69
2023/05/08 00:11:23;;;;;;;16.55;10.02;;;;;;;;;;5020383;28;20041;-70
2023/05/08 00:13:49;;;;;;;17.10;10.80;;;;;;;;;;5021141;28;20049;-70
2023/05/08 00:16:14;;;;;;;15.70;10.80;;;;;;;;;;5020577;28;20140;-70
2023/05/08 00:18:40;;;;;;;16.95;12.10;;;;;;;;;;5021489;28;20145;-70
2023/05/08 00:21:05;;;;;;;16.75;10.80;;;;;;;;;;5021269;28;20045;-70
2023/05/08 00:23:32;;;;;;;16.60;10.73;;;;;;;;;;5018370;28;20048;-70
2023/05/08 00:25:57;;;;;;;16.95;10.77;;;;;;;;;;5021171;28;21070;-70
2023/05/08 00:28:23;;;;;;;14.98;10.55;;;;;;;;;;5020685;28;20100;-70
2023/05/08 00:30:48;;;;;;;14.70;9.93;;;;;;;;;;5016969;28;20521;-70
2023/05/08 00:33:13;;;;;;;15.43;10.52;;;;;;;;;;5012013;28;20133;-69
2023/05/08 00:35:41;;;;;;;14.95;9.95;;;;;;;;;;5019057;28;20049;-70
2023/05/08 00:38:06;;;;;;;15.55;9.98;;;;;;;;;;5036113;28;20049;-71
2023/05/08 00:40:32;;;;;;;16.45;10.60;;;;;;;;;;5019060;28;20075;-70
2023/05/08 00:42:57;;;;;;;15.18;9.98;;;;;;;;;;5020657;28;20388;-70
2023/05/08 00:45:23;;;;;;;14.15;10.55;;;;;;;;;;5018857;28;20052;-70
2023/05/08 00:47:49;;;;;;;15.35;11.65;;;;;;;;;;5035577;28;20059;-70
2023/05/08 00:50:15;;;;;;;20.08;11.40;;;;;;;;;;5020388;28;20059;-70
2023/05/08 00:52:41;;;;;;;17.00;11.50;;;;;;;;;;5019080;28;20050;-71
2023/05/08 00:55:07;;;;;;;14.73;11.35;;;;;;;;;;5019799;28;20061;-69
2023/05/08 00:57:34;;;;;;;17.65;11.07;;;;;;;;;;5018956;28;20123;-69
2023/05/08 01:00:01;;;;;;;13.70;10.77;;;;;;;;;;5016771;28;21020;-69
2023/05/08 01:02:30;;;;;;;15.80;10.80;;;;;;;;;;5019842;28;20058;-69
2023/05/08 01:04:55;;;;;;;14.30;10.23;;;;;;;;;;5020238;28;20568;-69
2023/05/08 01:07:21;;;;;;;15.95;10.60;;;;;;;;;;5013091;28;20053;-69
2023/05/08 01:09:47;;;;;;;13.63;10.07;;;;;;;;;;5033928;28;20041;-69
2023/05/08 01:12:23;;;;;;;16.08;10.85;;;;;;;;;;5016448;28;20131;-70
2023/05/08 01:15:19;;;;;;;14.70;10.23;;;;;;;;;;5033901;28;20057;-70
2023/05/08 01:18:11;;;;;;;15.00;10.60;;;;;;;;;;5031116;28;20072;-70
2023/05/08 01:20:56;;;;;;;;;;;;;;;;;;5031205;28;20551;-70
2023/05/08 01:24:17;;;;;;;14.40;9.90;;;;;;;;;;5032906;28;20019;-70
2023/05/08 01:27:11;;;;;;;14.10;9.95;;;;;;;;;;4992986;28;20180;-70
2023/05/08 01:29:51;;;;;;;15.43;9.70;;;;;;;;;;4999130;28;20565;-70
2023/05/08 01:32:25;;;;;;;18.80;10.80;;;;;;;;;;5008215;28;20053;-70
2023/05/08 01:35:09;;;;;;;11.88;9.90;;;;;;;;;;5027736;28;20057;-70
2023/05/08 01:37:41;;;;;;;14.07;9.40;;;;;;;;;;5015476;28;20053;-70
2023/05/08 01:40:15;;;;;;;14.57;9.85;;;;;;;;;;5019690;28;20050;-70
2023/05/08 01:42:49;;;;;;;17.75;10.70;;;;;;;;;;5019932;28;20128;-69
2023/05/08 01:45:25;;;;;;;14.23;9.90;;;;;;;;;;5037719;28;20418;-70
2023/05/08 01:48:02;;;;;;;14.48;9.75;;;;;;;;;;5022559;28;20139;-70
2023/05/08 01:50:45;;;;;;;14.40;9.75;;;;;;;;;;5038931;28;20148;-69
2023/05/08 01:53:25;;;;;;;15.65;9.98;;;;;;;;;;5023505;28;20066;-69
2023/05/08 01:55:55;;;;;;;17.30;10.75;;;;;;;;;;5022867;28;20053;-69
2023/05/08 01:58:23;;;;;;;16.70;9.33;;;;;;;;;;5022220;28;20116;-69
2023/05/08 02:00:50;;;;;;;17.15;10.27;;;;;;;;;;5022355;28;20276;-69
2023/05/08 02:03:16;;;;;;;15.13;9.95;;;;;;;;;;5038968;28;20049;-70
2023/05/08 02:05:43;;;;;;;14.40;9.90;;;;;;;;;;5021590;28;20041;-70
2023/05/08 02:08:11;;;;;;;12.82;8.77;;;;;;;;;;5023212;28;20085;-71
2023/05/08 02:10:38;;;;;;;15.02;9.05;;;;;;;;;;5023787;28;20056;-70
2023/05/08 02:13:06;;;;;;;11.25;8.82;;;;;;;;;;5038927;28;20053;-70
2023/05/08 02:15:35;;;;;;;11.60;8.35;;;;;;;;;;5023410;28;20053;-70
2023/05/08 02:18:04;;;;;;;11.52;8.43;;;;;;;;;;4990296;28;20054;-70
2023/05/08 02:20:30;;;;;;;15.45;8.38;;;;;;;;;;5019869;28;20084;-70
2023/05/08 02:22:56;;;;;;;11.32;9.00;;;;;;;;;;5018876;28;20074;-70
2023/05/08 02:25:24;;;;;;;11.35;8.52;;;;;;;;;;5014422;28;20049;-70
2023/05/08 02:27:52;;;;;;;16.20;9.15;;;;;;;;;;5016449;28;20425;-70
2023/05/08 02:30:18;;;;;;;13.50;8.15;;;;;;;;;;5022724;28;20064;-70
2023/05/08 02:32:45;;;;;;;11.63;8.68;;;;;;;;;;5022892;28;20063;-70
2023/05/08 02:35:16;;;;;;;12.50;8.52;;;;;;;;;;5022756;28;20702;-70
2023/05/08 02:37:49;;;;;;;11.75;8.88;;;;;;;;;;5022088;28;20456;-70
2023/05/08 02:40:16;;;;;;;;;;;;;;;;;;5037571;28;20046;-70
2023/05/08 02:42:42;;;;;;;12.40;8.65;;;;;;;;;;5036202;28;19917;-70
2023/05/08 02:45:11;;;;;;;13.00;8.35;;;;;;;;;;5037920;28;20095;-70
2023/05/08 02:47:42;;;;;;;11.82;8.40;;;;;;;;;;5019150;28;20053;-71
2023/05/08 02:50:16;;;;;;;10.50;7.43;;;;;;;;;;5033949;28;20120;-71
2023/05/08 02:52:47;;;;;;;11.60;8.07;;;;;;;;;;5021451;28;20045;-70
2023/05/08 02:55:36;;;;;;;11.50;8.30;;;;;;;;;;5036560;28;20076;-70
2023/05/08 02:58:20;;;;;;;11.38;8.18;;;;;;;;;;5018518;28;20041;-71
2023/05/08 03:00:59;;;;;;;14.55;8.00;;;;;;;;;;5049221;28;20060;-71
2023/05/08 03:03:30;;;;;;;10.38;7.57;;;;;;;;;;5021282;28;20594;-70
2023/05/08 03:05:58;;;;;;;13.60;7.82;;;;;;;;;;5021146;28;20053;-71
2023/05/08 03:08:30;;;;;;;11.93;8.48;;;;;;;;;;5035252;28;20445;-70
2023/05/08 03:10:58;;;;;;;12.70;7.90;;;;;;;;;;5022131;28;20053;-70
2023/05/08 03:13:28;;;;;;;13.55;7.82;;;;;;;;;;5018337;28;20827;-70
2023/05/08 03:15:57;;;;;;;10.50;6.95;;;;;;;;;;5037830;28;20057;-70
2023/05/08 03:18:32;;;;;;;11.10;7.65;;;;;;;;;;5035223;28;20053;-70
2023/05/08 03:21:00;;;;;;;11.65;8.20;;;;;;;;;;5020476;28;20081;-70
2023/05/08 03:23:28;;;;;;;10.88;8.07;;;;;;;;;;5018192;28;20593;-70
2023/05/08 03:25:55;;;;;;;8.57;6.70;;;;;;;;;;5037806;28;20050;-71
2023/05/08 03:28:21;;;;;;;11.93;7.72;;;;;;;;;;5016045;28;20049;-71
2023/05/08 03:30:48;;;;;;;13.57;8.65;;;;;;;;;;5037256;28;20038;-71
2023/05/08 03:33:16;;;;;;;12.48;8.80;;;;;;;;;;5035646;28;20041;-71
2023/05/08 03:35:43;;;;;;;10.88;8.35;;;;;;;;;;5036848;28;20080;-71
2023/05/08 03:38:09;;;;;;;10.68;7.97;;;;;;;;;;5033613;28;20045;-71
2023/05/08 03:40:37;;;;;;;13.27;8.02;;;;;;;;;;5037266;28;20051;-71
2023/05/08 03:43:06;;;;;;;11.63;8.63;;;;;;;;;;5037077;28;20045;-71
2023/05/08 03:45:35;;;;;;;18.48;9.25;;;;;;;;;;5019514;28;20045;-69
2023/05/08 03:48:03;;;;;;;24.88;13.40;;;;;;;;;;5021896;28;20041;-70
2023/05/08 03:50:30;;;;;;;20.13;11.88;;;;;;;;;;5019898;28;20936;-70
2023/05/08 03:52:57;;;;;;;27.50;14.50;;;;;;;;;;4990513;28;20514;-72
2023/05/08 03:55:23;;;;;;;11.10;7.82;;;;;;;;;;5014869;28;20077;-72
2023/05/08 03:58:06;;;;;;;15.88;10.35;;;;;;;;;;5020566;28;20053;-72
2023/05/08 04:00:48;;;;;;;10.30;7.55;;;;;;;;;;5036455;28;20074;-72
2023/05/08 04:03:26;;;;;;;12.02;7.82;;;;;;;;;;5030187;28;20045;-72
2023/05/08 04:05:52;;;;;;;16.63;8.88;;;;;;;;;;5012619;28;20057;-72
2023/05/08 04:08:28;;;;;;;9.82;8.23;;;;;;;;;;5019705;28;20041;-72
2023/05/08 04:11:23;;;;;;;23.83;8.85;;;;;;;;;;5035354;28;20047;-72
2023/05/08 04:13:56;;;;;;;11.05;8.75;;;;;;;;;;5009310;28;20073;-71
2023/05/08 04:16:26;;;;;;;11.57;8.18;;;;;;;;;;5019857;28;20053;-72
2023/05/08 04:19:02;;;;;;;11.43;7.90;;;;;;;;;;5019200;28;20046;-71
2023/05/08 04:21:32;;;;;;;10.25;7.20;;;;;;;;;;5035511;28;20053;-72
2023/05/08 04:24:00;;;;;;;10.10;7.85;;;;;;;;;;5019855;28;20076;-72
2023/05/08 04:26:28;;;;;;;12.75;7.40;;;;;;;;;;5036309;28;20045;-71
2023/05/08 04:28:56;;;;;;;11.18;7.82;;;;;;;;;;5018361;28;20049;-72
2023/05/08 04:31:23;;;;;;;12.50;8.32;;;;;;;;;;5031447;28;20057;-72
2023/05/08 04:33:49;;;;;;;11.93;7.93;;;;;;;;;;5015067;28;20085;-71
2023/05/08 04:36:14;;;;;;;11.93;7.78;;;;;;;;;;5013379;28;20534;-72
2023/05/08 04:38:42;;;;;;;12.32;7.65;;;;;;;;;;5027275;28;20329;-72
2023/05/08 04:41:09;;;;;;;10.82;8.15;;;;;;;;;;5018277;28;20600;-71
2023/05/08 04:43:36;;;;;;;10.65;8.15;;;;;;;;;;5017508;28;20114;-72
2023/05/08 04:46:04;;;;;;;9.60;7.40;;;;;;;;;;5018297;28;20041;-70
2023/05/08 04:48:32;;;;;;;10.43;7.35;;;;;;;;;;5035260;28;20045;-71
2023/05/08 04:50:57;;;;;;;10.10;7.53;;;;;;;;;;5028807;28;20173;-70
2023/05/08 04:53:23;;;;;;;10.90;7.63;;;;;;;;;;5032274;28;20137;-69
2023/05/08 04:55:48;;;;;;;9.95;7.07;;;;;;;;;;5025420;28;20033;-69
2023/05/08 04:58:14;;;;;;;11.65;7.60;;;;;;;;;;5016760;28;20045;-71
2023/05/08 05:00:39;;;;;;;11.95;8.07;;;;;;;;;;5032951;28;20533;-70
2023/05/08 05:03:05;;;;;;;10.55;7.70;;;;;;;;;;5008856;28;20566;-72
2023/05/08 05:05:31;;;;;;;11.98;7.43;;;;;;;;;;5017504;28;20053;-70
2023/05/08 05:07:56;;;;;;;10.63;7.35;;;;;;;;;;5017083;28;20127;-69
2023/05/08 05:10:22;;;;;;;10.27;7.57;;;;;;;;;;5030272;28;20037;-70
2023/05/08 05:12:47;;;;;;;10.05;7.53;;;;;;;;;;5010087;28;20050;-70
2023/05/08 05:15:13;;;;;;;9.85;7.22;;;;;;;;;;5032763;28;20494;-70
2023/05/08 05:17:38;;;;;;;10.43;7.53;;;;;;;;;;5003219;28;20044;-70
2023/05/08 05:20:06;;;;;;;12.32;7.55;;;;;;;;;;5032960;28;20783;-70
2023/05/08 05:22:32;;;;;;;10.88;7.97;;;;;;;;;;5009167;28;20047;-69
2023/05/08 05:24:57;;;;;;;11.05;7.60;;;;;;;;;;5013781;28;20410;-70
2023/05/08 05:27:23;;;;;;;10.80;7.63;;;;;;;;;;5017360;28;20037;-70
2023/05/08 05:29:50;;;;;;;9.52;7.63;;;;;;;;;;5032610;28;20073;-70
2023/05/08 05:32:15;;;;;;;15.90;7.78;;;;;;;;;;5009686;28;20136;-70
2023/05/08 05:34:41;;;;;;;9.77;7.90;;;;;;;;;;5030916;28;20045;-71
2023/05/08 05:37:06;;;;;;;13.35;8.90;;;;;;;;;;5016073;28;20540;-70
2023/05/08 05:39:32;;;;;;;10.35;7.18;;;;;;;;;;5034919;28;20095;-71
2023/05/08 05:41:57;;;;;;;14.07;8.35;;;;;;;;;;5017357;28;20046;-71
2023/05/08 05:44:23;;;;;;;10.45;7.43;;;;;;;;;;5014815;28;20041;-70
2023/05/08 05:46:48;;;;;;;10.07;7.90;;;;;;;;;;5016726;28;20128;-71
2023/05/08 05:49:15;;;;;;;10.38;7.38;;;;;;;;;;5033389;28;20463;-71
2023/05/08 05:51:40;;;;;;;12.02;8.27;;;;;;;;;;5018528;28;20528;-70
2023/05/08 05:54:06;;;;;;;10.32;7.85;;;;;;;;;;5018229;28;21034;-70
2023/05/08 05:56:32;;;;;;;14.35;7.75;;;;;;;;;;5006491;28;20049;-68
2023/05/08 05:58:57;;;;;;;10.52;7.63;;;;;;;;;;5016996;28;20049;-69
2023/05/08 06:01:24;;;;;;;10.65;8.20;;;;;;;;;;5034470;28;20034;-69
2023/05/08 06:03:49;;;;;;;10.77;8.20;;;;;;;;;;5034243;28;20034;-69
2023/05/08 06:06:15;;;;;;;10.70;7.25;;;;;;;;;;5008761;28;20044;-70
2023/05/08 06:08:40;;;;;;;11.82;8.65;;;;;;;;;;5016764;28;20048;-69
2023/05/08 06:11:06;;;;;;;10.88;7.70;;;;;;;;;;5009567;28;20108;-70
2023/05/08 06:13:32;;;;;;;12.02;8.20;;;;;;;;;;5034365;28;20490;-70
2023/05/08 06:15:57;;;;;;;12.73;8.02;;;;;;;;;;5015449;28;20077;-70
2023/05/08 06:18:23;;;;;;;11.07;7.80;;;;;;;;;;5016394;28;20502;-70
2023/05/08 06:20:55;;;;;;;14.38;8.35;;;;;;;;;;5034686;28;20393;-69
2023/05/08 06:23:20;;;;;;;11.02;7.57;;;;;;;;;;5034095;28;20045;-69
2023/05/08 06:25:46;;;;;;;10.32;8.10;;;;;;;;;;4984001;28;20100;-69
2023/05/08 06:28:11;;;;;;;11.32;8.20;;;;;;;;;;5018970;28;20068;-70
2023/05/08 06:30:36;;;;;;;10.20;8.23;;;;;;;;;;5021907;28;20077;-69
2023/05/08 06:33:02;;;;;;;9.85;8.27;;;;;;;;;;5022291;28;20041;-69
2023/05/08 06:35:28;;;;;;;10.57;6.88;;;;;;;;;;5017066;28;20069;-70
2023/05/08 06:37:53;;;;;;;12.85;7.45;;;;;;;;;;5017520;28;20041;-69
2023/05/08 06:40:19;;;;;;;11.38;7.88;;;;;;;;;;5036943;28;20042;-69
2023/05/08 06:42:45;;;;;;;8.07;6.28;;;;;;;;;;5017882;28;20150;-69
2023/05/08 06:45:10;;;;;;;11.50;7.57;;;;;;;;;;5016818;28;20069;-69
2023/05/08 06:47:36;;;;;;;9.40;7.38;;;;;;;;;;5019470;28;20141;-69
2023/05/08 06:50:02;;;;;;;13.18;7.38;;;;;;;;;;5022131;28;20393;-69
2023/05/08 06:52:27;;;;;;;11.18;7.40;;;;;;;;;;5020796;28;20422;-70
2023/05/08 06:54:52;;;;;;;9.77;7.78;;;;;;;;;;5017502;28;20057;-70
2023/05/08 06:57:18;;;;;;;11.98;7.22;;;;;;;;;;5017876;28;20711;-70
2023/05/08 06:59:43;;;;;;;11.15;8.13;;;;;;;;;;5016290;28;20064;-70
2023/05/08 07:02:10;;;;;;;11.43;8.00;;;;;;;;;;5018918;28;20049;-71
2023/05/08 07:04:36;;;;;;;11.73;8.20;;;;;;;;;;5014974;28;20053;-70
2023/05/08 07:07:01;;;;;;;10.30;7.70;;;;;;;;;;5016309;28;20045;-70
2023/05/08 07:09:26;;;;;;;12.48;8.13;;;;;;;;;;5019915;28;20052;-71
2023/05/08 07:11:52;;;;;;;11.48;7.78;;;;;;;;;;5012323;28;20045;-72
2023/05/08 07:14:17;;;;;;;13.30;8.18;;;;;;;;;;5017205;28;20045;-69
2023/05/08 07:16:43;;;;;;;11.43;7.72;;;;;;;;;;5016125;28;20502;-69
2023/05/08 07:19:08;;;;;;;17.05;8.07;;;;;;;;;;5010348;28;20042;-69
2023/05/08 07:21:34;;;;;;;11.07;8.50;;;;;;;;;;5017769;28;20046;-70
2023/05/08 07:23:59;;;;;;;12.57;7.93;;;;;;;;;;5013692;28;20560;-69
2023/05/08 07:26:24;;;;;;;11.65;8.13;;;;;;;;;;5017465;28;20129;-69
2023/05/08 07:28:52;;;;;;;10.60;8.32;;;;;;;;;;5018587;28;20510;-69
2023/05/08 07:31:17;;;;;;;14.63;8.85;;;;;;;;;;5034628;28;20356;-69
2023/05/08 07:33:43;;;;;;;13.32;8.75;;;;;;;;;;5017980;28;21091;-69
2023/05/08 07:36:08;;;;;;;13.90;8.85;;;;;;;;;;5019529;28;20049;-70
2023/05/08 07:38:35;;;;;;;12.88;9.45;;;;;;;;;;5011305;28;20053;-70
2023/05/08 07:41:00;;;;;;;12.45;8.25;;;;;;;;;;5011066;28;20045;-69
2023/05/08 07:43:26;;;;;;;12.15;8.98;;;;;;;;;;5014250;28;20380;-69
2023/05/08 07:45:52;;;;;;;13.95;9.00;;;;;;;;;;5014408;28;20943;-69
2023/05/08 07:48:18;;;;;;;13.80;8.95;;;;;;;;;;5013823;28;20095;-69
2023/05/08 07:50:44;;;;;;;14.98;9.32;;;;;;;;;;5016555;28;20053;-69
2023/05/08 07:53:09;;;;;;;11.73;8.10;;;;;;;;;;5018039;28;20049;-69
2023/05/08 07:55:35;;;;;;;16.58;8.95;;;;;;;;;;5020065;28;20049;-69
2023/05/08 07:58:00;;;;;;;11.35;8.70;;;;;;;;;;5036192;28;20045;-68
2023/05/08 08:00:26;;;;;;;10.57;6.68;;;;;;;;;;5014539;28;20060;-70
2023/05/08 08:02:52;;;;;;;10.63;7.68;;;;;;;;;;5018303;28;20045;-68
2023/05/08 08:05:17;;;;;;;11.15;8.52;;;;;;;;;;5021141;28;20152;-68
2023/05/08 08:07:43;;;;;;;12.70;8.65;;;;;;;;;;5021414;28;20467;-68
2023/05/08 08:10:08;;;;;;;12.77;8.82;;;;;;;;;;5010439;28;20495;-69
2023/05/08 08:12:34;;;;;;;12.98;9.38;;;;;;;;;;5014960;28;20041;-68
2023/05/08 08:15:00;;;;;;;13.13;9.75;;;;;;;;;;5013398;28;20418;-69
2023/05/08 08:17:25;;;;;;;14.15;9.73;;;;;;;;;;5017819;28;20042;-69
2023/05/08 08:19:50;;;;;;;11.48;9.25;;;;;;;;;;5016916;28;20053;-69
2023/05/08 08:22:16;;;;;;;14.48;9.95;;;;;;;;;;5014242;28;20963;-68
2023/05/08 08:24:41;;;;;;;13.30;9.93;;;;;;;;;;5021129;28;20049;-70
2023/05/08 08:27:07;;;;;;;13.93;9.52;;;;;;;;;;5010379;28;20040;-69
2023/05/08 08:29:32;;;;;;;13.55;10.05;;;;;;;;;;5019648;28;20041;-69
2023/05/08 08:31:59;;;;;;;12.30;9.55;;;;;;;;;;5013204;28;20041;-70
2023/05/08 08:34:24;;;;;;;15.50;10.63;;;;;;;;;;5020562;28;20124;-70
2023/05/08 08:36:50;;;;;;;14.50;10.35;;;;;;;;;;5018885;28;20088;-69
2023/05/08 08:39:15;;;;;;;15.27;10.32;;;;;;;;;;5015949;28;20141;-70
2023/05/08 08:41:41;;;;;;;14.85;10.52;;;;;;;;;;5006968;28;20073;-70
2023/05/08 08:44:06;;;;;;;15.88;11.63;;;;;;;;;;5015543;28;20045;-70
2023/05/08 08:46:32;;;;;;;15.48;10.75;;;;;;;;;;5017459;28;20521;-70
2023/05/08 08:49:01;;;;;;;14.77;11.05;;;;;;;;;;5011341;28;20095;-69
2023/05/08 08:51:30;;;;;;;15.45;11.52;;;;;;;;;;5017101;28;20064;-71
2023/05/08 08:54:06;;;;;;;17.02;11.57;;;;;;;;;;5006458;28;20049;-71
2023/05/08 08:56:32;;;;;;;14.30;10.35;;;;;;;;;;5020129;28;20084;-70
2023/05/08 08:58:59;;;;;;;18.00;11.63;;;;;;;;;;5020677;28;20053;-70
2023/05/08 09:01:28;;;;;;;14.75;10.88;;;;;;;;;;5012868;28;20531;-69
2023/05/08 09:03:55;;;;;;;15.20;11.60;;;;;;;;;;5011656;28;20136;-69
2023/05/08 09:06:21;;;;;;;19.05;12.65;;;;;;;;;;5016473;28;20041;-70
2023/05/08 09:08:46;;;;;;;16.35;12.48;;;;;;;;;;5018257;28;20052;-71
2023/05/08 09:11:12;;;;;;;15.75;12.05;;;;;;;;;;5012667;28;20140;-71
2023/05/08 09:13:37;;;;;;;17.00;12.88;;;;;;;;;;5014146;28;20080;-71
2023/05/08 09:16:03;;;;;;;19.38;12.73;;;;;;;;;;5010388;28;20425;-71
2023/05/08 09:18:28;;;;;;;19.55;13.07;;;;;;;;;;5011847;28;20406;-72
2023/05/08 09:20:54;;;;;;;16.20;11.65;;;;;;;;;;5014395;28;20065;-71
2023/05/08 09:23:19;;;;;;;18.02;14.25;;;;;;;;;;5017000;28;20050;-72
2023/05/08 09:25:47;;;;;;;17.55;12.68;;;;;;;;;;5014295;28;20539;-72
2023/05/08 09:28:21;;;;;;;18.42;13.00;;;;;;;;;;5010043;28;20046;-70
2023/05/08 09:30:57;;;;;;;17.00;12.05;;;;;;;;;;5017859;28;20068;-69
2023/05/08 09:33:24;;;;;;;19.13;13.73;;;;;;;;;;5014908;28;20111;-68
2023/05/08 09:35:50;;;;;;;20.05;13.75;;;;;;;;;;5019474;28;20080;-70
2023/05/08 09:38:31;;;;;;;18.55;13.50;;;;;;;;;;5016309;28;20136;-70
2023/05/08 09:41:07;;;;;;;17.67;13.05;;;;;;;;;;5019966;28;20168;-69
2023/05/08 09:43:33;;;;;;;18.30;13.55;;;;;;;;;;5017387;28;20056;-69
2023/05/08 09:46:18;;;;;;;19.48;13.85;;;;;;;;;;5012638;28;20042;-69
2023/05/08 09:48:44;;;;;;;20.65;13.85;;;;;;;;;;5023832;28;20422;-70
2023/05/08 09:51:10;;;;;;;18.92;14.60;;;;;;;;;;5015044;28;20315;-69
2023/05/08 09:53:36;;;;;;;18.40;14.07;;;;;;;;;;5015551;28;20046;-69
2023/05/08 09:56:01;;;;;;;19.20;13.85;;;;;;;;;;5012485;28;20049;-69
2023/05/08 09:58:40;;;;;;;17.77;13.82;;;;;;;;;;5018244;28;20770;-69
2023/05/08 10:01:07;;;;;;;19.52;14.35;;;;;;;;;;5032646;28;20076;-69
2023/05/08 10:03:48;;;;;;;18.13;14.43;;;;;;;;;;5010702;28;20088;-69
2023/05/08 10:06:15;;;;;;;27.67;15.32;;;;;;;;;;5019898;28;20045;-69
2023/05/08 10:08:40;;;;;;;19.45;15.05;;;;;;;;;;5023250;28;20088;-69
2023/05/08 10:11:16;;;;;;;23.83;14.57;;;;;;;;;;5017919;28;20073;-69
2023/05/08 10:13:46;;;;;;;19.85;14.73;;;;;;;;;;5021474;28;20037;-69
2023/05/08 10:16:15;;;;;;;24.00;14.35;;;;;;;;;;5021392;28;20040;-70
2023/05/08 10:18:51;;;;;;;18.73;14.25;;;;;;;;;;5011758;28;20073;-71
2023/05/08 10:21:17;;;;;;;18.77;14.07;;;;;;;;;;5016159;28;20418;-70
2023/05/08 10:23:43;;;;;;;24.40;15.82;;;;;;;;;;5017311;28;20533;-69
2023/05/08 10:26:14;;;;;;;23.17;14.45;;;;;;;;;;5010059;28;20046;-69
2023/05/08 10:28:54;;;;;;;21.13;14.63;;;;;;;;;;5011496;28;20605;-69
2023/05/08 10:31:21;;;;;;;19.00;15.32;;;;;;;;;;5015437;28;20342;-69
2023/05/08 10:33:50;;;;;;;20.48;15.20;;;;;;;;;;5011075;28;20046;-69
2023/05/08 10:36:15;;;;;;;22.40;16.23;;;;;;;;;;5016790;28;20060;-69
2023/05/08 10:38:42;;;;;;;20.88;15.85;;;;;;;;;;5020242;28;20045;-69
2023/05/08 10:41:09;;;;;;;19.00;14.77;;;;;;;;;;5018353;28;20050;-71
2023/05/08 10:43:37;;;;;;;18.48;14.20;;;;;;;;;;5017689;28;20790;-70
2023/05/08 10:46:14;;;;;;;18.33;14.48;;;;;;;;;;5012063;28;20049;-69
2023/05/08 10:49:04;;;;;;;20.52;15.60;;;;;;;;;;5013506;28;20149;-69
2023/05/08 10:51:39;;;;;;;24.08;15.18;;;;;;;;;;5014716;28;20042;-69
2023/05/08 10:54:11;;;;;;;21.05;14.60;;;;;;;;;;5014485;28;20623;-68
2023/05/08 10:56:38;;;;;;;18.23;14.45;;;;;;;;;;5013587;28;20060;-69
2023/05/08 10:59:04;;;;;;;20.33;15.02;;;;;;;;;;5022691;28;20084;-68
2023/05/08 11:01:30;;;;;;;19.38;15.07;;;;;;;;;;5019019;28;20045;-68
2023/05/08 11:03:55;;;;;;;20.20;14.80;;;;;;;;;;5016853;28;20101;-68
2023/05/08 11:06:45;;;;;;;22.45;15.25;;;;;;;;;;5018270;28;20049;-68
2023/05/08 11:09:25;;;;;;;17.98;14.50;;;;;;;;;;5007998;28;20108;-68
2023/05/08 11:12:07;;;;;;;19.00;15.02;;;;;;;;;;5020364;28;20045;-69
2023/05/08 11:14:36;;;;;;;;;;;;;;;;;;5016605;28;20084;-69
2023/05/08 11:17:03;;;;;;;17.60;14.15;;;;;;;;;;5008888;28;19996;-69
2023/05/08 11:19:28;;;;;;;20.52;14.07;;;;;;;;;;5016455;28;20065;-69
2023/05/08 11:22:10;;;;;;;16.15;13.57;;;;;;;;;;5015640;28;20196;-69
2023/05/08 11:24:36;;;;;;;18.03;14.00;;;;;;;;;;5015046;28;20076;-69
2023/05/08 11:27:02;;;;;;;18.08;15.15;;;;;;;;;;5016013;28;20280;-69
2023/05/08 11:29:27;;;;;;;19.45;15.68;;;;;;;;;;5037861;28;20033;-68
2023/05/08 11:31:53;;;;;;;19.42;15.90;;;;;;;;;;5010640;28;20042;-69
2023/05/08 11:34:40;;;;;;;22.67;15.30;;;;;;;;;;5011633;28;20046;-69
2023/05/08 11:37:20;;;;;;;19.13;15.93;;;;;;;;;;5015338;28;20084;-69
2023/05/08 11:39:46;;;;;;;17.88;15.45;;;;;;;;;;5019221;28;20041;-69
2023/05/08 11:42:32;;;;;;;19.90;15.40;;;;;;;;;;5017641;28;20045;-69
2023/05/08 11:45:08;;;;;;;22.92;15.60;;;;;;;;;;5032709;28;20103;-68
2023/05/08 11:47:42;;;;;;;20.35;15.65;;;;;;;;;;5015890;28;20089;-69
2023/05/08 11:50:09;;;;;;;19.42;15.15;;;;;;;;;;5016130;28;20135;-69
2023/05/08 11:52:37;;;;;;;23.23;15.75;;;;;;;;;;5013931;28;20123;-69
2023/05/08 11:55:08;;;;;;;20.88;15.35;;;;;;;;;;5014091;28;20054;-68
2023/05/08 11:57:34;;;;;;;16.80;13.68;;;;;;;;;;5014219;28;20045;-70
2023/05/08 12:00:06;;;;;;;18.05;14.25;;;;;;;;;;5017939;28;20107;-69
2023/05/08 12:02:35;;;;;;;20.00;15.77;;;;;;;;;;5012861;28;20590;-70
2023/05/08 12:05:00;;;;;;;20.45;15.77;;;;;;;;;;5016818;28;20461;-70
2023/05/08 12:07:26;;;;;;;19.05;14.32;;;;;;;;;;5009978;28;20050;-69
2023/05/08 12:09:52;;;;;;;18.58;15.02;;;;;;;;;;5013727;28;20037;-70
2023/05/08 12:12:17;;;;;;;20.88;15.80;;;;;;;;;;5016918;28;20115;-70
2023/05/08 12:14:42;;;;;;;19.40;15.52;;;;;;;;;;5013609;28;20095;-69
2023/05/08 12:17:08;;;;;;;19.45;15.38;;;;;;;;;;5011914;28;20474;-70
2023/05/08 12:19:34;;;;;;;23.38;16.77;;;;;;;;;;5015672;28;20048;-69
2023/05/08 12:21:59;;;;;;;21.98;16.17;;;;;;;;;;5009157;28;20056;-69
2023/05/08 12:24:25;;;;;;;21.60;16.75;;;;;;;;;;5014667;28;20137;-70
2023/05/08 12:26:55;;;;;;;21.02;16.80;;;;;;;;;;5019535;28;20140;-70
2023/05/08 12:29:20;;;;;;;20.02;15.18;;;;;;;;;;5012379;28;20037;-71
2023/05/08 12:31:47;;;;;;;16.48;14.60;;;;;;;;;;5018783;28;20045;-71
2023/05/08 12:34:12;;;;;;;19.80;14.10;;;;;;;;;;5007295;28;20064;-71
2023/05/08 12:36:38;;;;;;;18.73;15.07;;;;;;;;;;5012385;28;20502;-70
2023/05/08 12:39:17;;;;;;;18.33;14.88;;;;;;;;;;5017641;28;20057;-69
2023/05/08 12:41:50;;;;;;;18.38;14.30;;;;;;;;;;5013118;28;20046;-68
2023/05/08 12:44:25;;;;;;;19.20;14.80;;;;;;;;;;5014948;28;20038;-68
2023/05/08 12:46:52;;;;;;;19.42;14.23;;;;;;;;;;5011908;28;20052;-68
2023/05/08 12:49:29;;;;;;;18.13;13.98;;;;;;;;;;5016685;28;20099;-68
2023/05/08 12:52:08;;;;;;;18.30;14.60;;;;;;;;;;5015523;28;20049;-69
2023/05/08 12:54:38;;;;;;;19.48;14.40;;;;;;;;;;5015307;28;20111;-68
2023/05/08 12:57:11;;;;;;;19.98;14.25;;;;;;;;;;5010415;28;20518;-68
2023/05/08 12:59:37;;;;;;;20.02;15.18;;;;;;;;;;5018978;28;20049;-68
2023/05/08 13:02:02;;;;;;;19.13;14.50;;;;;;;;;;5017591;28;20052;-69
2023/05/08 13:04:28;;;;;;;17.30;13.80;;;;;;;;;;5015070;28;20041;-68
2023/05/08 13:06:56;;;;;;;16.88;13.63;;;;;;;;;;5012812;28;20045;-69
2023/05/08 13:09:22;;;;;;;17.90;14.63;;;;;;;;;;5014961;28;20133;-69
2023/05/08 13:11:48;;;;;;;22.80;14.70;;;;;;;;;;5012374;28;20060;-68
2023/05/08 13:14:14;;;;;;;16.45;12.23;;;;;;;;;;5008358;28;20061;-69
2023/05/08 13:16:43;;;;;;;16.33;12.75;;;;;;;;;;5013722;28;20056;-70
2023/05/08 13:19:09;;;;;;;20.23;12.93;;;;;;;;;;5009663;28;20489;-70
2023/05/08 13:21:34;;;;;;;17.92;12.95;;;;;;;;;;5009200;28;20084;-72
2023/05/08 13:24:00;;;;;;;18.50;12.50;;;;;;;;;;5016097;28;20103;-69
2023/05/08 13:26:25;;;;;;;19.10;12.80;;;;;;;;;;5012211;28;20045;-69
2023/05/08 13:28:51;;;;;;;15.73;12.80;;;;;;;;;;5010529;28;20249;-70
2023/05/08 13:31:16;;;;;;;16.77;12.20;;;;;;;;;;5016527;28;20091;-70
2023/05/08 13:33:42;;;;;;;16.27;12.27;;;;;;;;;;5012929;28;20132;-69
2023/05/08 13:36:07;;;;;;;16.88;12.60;;;;;;;;;;5005403;28;20083;-68
2023/05/08 13:38:33;;;;;;;16.52;12.35;;;;;;;;;;5012979;28;20050;-69
2023/05/08 13:40:59;;;;;;;16.92;12.52;;;;;;;;;;5015089;28;20045;-69
2023/05/08 13:43:24;;;;;;;16.05;13.60;;;;;;;;;;5017173;28;20095;-69
2023/05/08 13:45:50;;;;;;;17.63;13.38;;;;;;;;;;5014951;28;20049;-69
2023/05/08 13:48:15;;;;;;;17.02;14.20;;;;;;;;;;5016370;28;20081;-68
2023/05/08 13:50:41;;;;;;;20.00;13.15;;;;;;;;;;5014579;28;20049;-69
2023/05/08 13:53:06;;;;;;;14.88;12.18;;;;;;;;;;5015859;28;20068;-70
2023/05/08 13:55:32;;;;;;;17.92;13.57;;;;;;;;;;5018107;28;20045;-69
2023/05/08 13:57:57;;;;;;;15.95;12.88;;;;;;;;;;5014641;28;21237;-69
2023/05/08 14:00:23;;;;;;;23.90;13.57;;;;;;;;;;5016970;28;20127;-67
2023/05/08 14:02:48;;;;;;;17.67;12.88;;;;;;;;;;5006020;28;20049;-68
2023/05/08 14:05:14;;;;;;;15.75;12.45;;;;;;;;;;5019603;28;20083;-68
2023/05/08 14:07:39;;;;;;;17.70;13.15;;;;;;;;;;5011806;28;20052;-68
2023/05/08 14:10:05;;;;;;;17.25;12.65;;;;;;;;;;5010822;28;20057;-68
2023/05/08 14:12:34;;;;;;;23.05;12.75;;;;;;;;;;5016444;28;20140;-68
2023/05/08 14:15:01;;;;;;;16.35;11.90;;;;;;;;;;5010690;28;20093;-68
2023/05/08 14:17:26;;;;;;;16.33;12.07;;;;;;;;;;5009821;28;20038;-68
2023/05/08 14:19:51;;;;;;;17.05;12.65;;;;;;;;;;5010923;28;20046;-69
2023/05/08 14:22:17;;;;;;;14.73;12.50;;;;;;;;;;5009300;28;20041;-68
2023/05/08 14:24:43;;;;;;;16.17;12.88;;;;;;;;;;5011636;28;20061;-69
2023/05/08 14:27:09;;;;;;;16.33;12.20;;;;;;;;;;5009453;28;20064;-68
2023/05/08 14:29:34;;;;;;;15.55;11.98;;;;;;;;;;5014581;28;20050;-68
2023/05/08 14:32:00;;;;;;;17.10;11.93;;;;;;;;;;5011775;28;20072;-69